createdAt,value
2019-06-20T20:00:27.190Z,98310.88
2019-06-20T20:02:55.261Z,98307.28
2019-06-20T20:05:23.840Z,98308.67
2019-06-20T20:07:52.325Z,98303.28
2019-06-20T20:10:24.797Z,98314.17
2019-06-20T20:13:01.231Z,98311.64
2019-06-20T20:15:29.657Z,98314.01
2019-06-20T20:17:58.116Z,98310.69
2019-06-20T20:20:26.775Z,98307.99
2019-06-20T20:22:56.434Z,98306.73
2019-06-20T20:25:24.820Z,98309.65
2019-06-20T20:27:53.617Z,98312.61
2019-06-20T20:30:21.821Z,98316.01
2019-06-20T20:32:50.149Z,98321.31
2019-06-20T20:35:34.275Z,98322.59
2019-06-20T20:37:48.176Z,98326.19
2019-06-20T20:40:16.572Z,98328.25
2019-06-20T20:42:44.949Z,98335.36
2019-06-20T20:45:13.657Z,98332.20
2019-06-20T20:47:41.946Z,98342.62
2019-06-20T20:50:10.078Z,98348.38
2019-06-20T20:52:39.124Z,98349.86
2019-06-20T20:55:08.527Z,98352.45
2019-06-20T20:57:37.126Z,98363.33
2019-06-20T21:00:05.823Z,98358.76
2019-06-20T21:02:34.033Z,98368.13
2019-06-20T21:05:02.429Z,98371.77
2019-06-20T21:07:32.308Z,98366.01
2019-06-20T21:10:00.844Z,98361.86
2019-06-20T21:12:28.993Z,98373.13
2019-06-20T21:14:57.272Z,98368.31
2019-06-20T21:17:25.898Z,98377.95
2019-06-20T21:19:54.607Z,98378.13
2019-06-20T21:22:23.615Z,98376.30
2019-06-20T21:24:52.366Z,98381.94
2019-06-20T21:27:21.486Z,98385.87
2019-06-20T21:29:50.031Z,98389.30
2019-06-20T21:32:18.208Z,98389.81
2019-06-20T21:34:46.376Z,98389.61
2019-06-20T21:37:14.887Z,98401.22
2019-06-20T21:39:44.166Z,98407.16
2019-06-20T21:42:12.936Z,98404.78
2019-06-20T21:44:41.938Z,98400.20
2019-06-20T21:47:10.164Z,98405.50
2019-06-20T21:53:35.170Z,98405.72
2019-06-20T21:56:45.588Z,98408.36
2019-06-20T21:59:14.044Z,98413.16
2019-06-20T22:01:42.274Z,98413.23
2019-06-20T22:04:11.190Z,98416.94
2019-06-20T22:06:39.574Z,98414.99
2019-06-20T22:09:08.289Z,98413.25
2019-06-20T22:11:36.808Z,98419.40
2019-06-20T22:14:05.609Z,98424.27
2019-06-20T22:16:34.009Z,98417.38
2019-06-20T22:19:02.989Z,98419.47
2019-06-20T22:21:32.150Z,98417.31
2019-06-20T22:24:00.795Z,98418.83
2019-06-20T22:26:29.547Z,98421.25
2019-06-20T22:30:48.420Z,98419.09
2019-06-20T22:33:25.991Z,98426.93
2019-06-20T22:35:55.027Z,98425.11
2019-06-20T22:38:24.143Z,98429.19
2019-06-20T22:40:53.287Z,98427.53
2019-06-20T22:43:21.884Z,98435.95
2019-06-20T22:45:50.185Z,98433.23
2019-06-20T22:48:18.472Z,98428.95
2019-06-20T22:50:46.905Z,98429.59
2019-06-20T22:53:15.389Z,98423.66
2019-06-20T22:55:43.792Z,98425.53
2019-06-20T22:58:12.342Z,98426.63
2019-06-20T23:00:40.951Z,98428.86
2019-06-20T23:03:10.772Z,98431.24
2019-06-20T23:05:39.415Z,98435.77
2019-06-20T23:08:07.616Z,98428.92
2019-06-20T23:10:36.085Z,98439.99
2019-06-20T23:13:04.670Z,98438.00
2019-06-20T23:15:33.266Z,98447.46
2019-06-20T23:18:01.491Z,98452.66
2019-06-20T23:20:31.375Z,98450.83
2019-06-20T23:22:59.570Z,98457.79
2019-06-20T23:25:28.093Z,98452.69
2019-06-20T23:27:56.822Z,98455.66
2019-06-20T23:30:25.461Z,98453.05
2019-06-20T23:32:54.181Z,98450.94
2019-06-20T23:35:23.410Z,98461.55
2019-06-20T23:37:51.534Z,98465.19
2019-06-20T23:40:19.747Z,98463.89
2019-06-20T23:42:48.718Z,98458.67
2019-06-20T23:45:16.972Z,98457.16
2019-06-20T23:47:45.046Z,98452.45
2019-06-20T23:50:19.515Z,98456.00
2019-06-20T23:52:51.090Z,98457.20
2019-06-20T23:55:19.436Z,98456.55
2019-06-20T23:57:48.016Z,98455.15
